Time;durP1;ratioP1;P1;durP2;ratioP2;P2;SDS_P1;SDS_P2;PMS_P1;PMS_P2;Temp;Humidity;BMP_temperature;BMP_pressure;BME280_temperature;BME280_humidity;BME280_pressure;Samples;Min_cycle;Max_cycle;Signal;HPM_P1;HPM_P2
2021/07/24 00:02:06;;;;;;;30.08;13.95;;;;;;;17.13;76.53;100702.19;5085925;28;20088;-74
2021/07/24 00:04:31;;;;;;;25.52;14.05;;;;;;;17.14;76.26;100697.81;5086146;28;20029;-75
2021/07/24 00:06:59;;;;;;;29.33;13.88;;;;;;;17.12;76.62;100703.13;5085845;28;20029;-74
2021/07/24 00:09:24;;;;;;;30.92;14.68;;;;;;;17.08;76.32;100702.34;5084509;28;20020;-74
2021/07/24 00:11:49;;;;;;;26.08;13.57;;;;;;;17.08;76.62;100707.59;5086225;28;20033;-74
2021/07/24 00:14:14;;;;;;;26.27;14.23;;;;;;;17.07;76.52;100710.22;5085431;28;20021;-74
2021/07/24 00:16:40;;;;;;;35.30;15.05;;;;;;;17.03;76.56;100709.47;5084958;28;20033;-74
2021/07/24 00:19:05;;;;;;;26.92;14.88;;;;;;;17.03;76.75;100706.00;5085982;28;20032;-74
2021/07/24 00:21:33;;;;;;;37.63;15.82;;;;;;;17.02;76.62;100713.00;5085853;28;20021;-74
2021/07/24 00:23:59;;;;;;;30.27;15.68;;;;;;;16.93;76.67;100690.53;5085559;28;20396;-74
2021/07/24 00:26:24;;;;;;;28.38;14.43;;;;;;;16.98;76.60;100703.53;5085565;28;20464;-73
2021/07/24 00:28:51;;;;;;;28.27;15.20;;;;;;;16.94;76.64;100700.13;5085516;28;20064;-74
2021/07/24 00:31:16;;;;;;;36.42;15.80;;;;;;;16.91;76.94;100688.84;5085391;28;20043;-74
2021/07/24 00:33:41;;;;;;;34.85;15.10;;;;;;;16.91;76.88;100688.84;5085256;28;20468;-74
2021/07/24 00:36:07;;;;;;;31.40;16.05;;;;;;;16.88;77.08;100689.81;5085289;28;20370;-74
2021/07/24 00:38:32;;;;;;;33.75;15.15;;;;;;;16.87;77.07;100688.09;5085188;28;20088;-74
2021/07/24 00:41:08;;;;;;;25.60;14.82;;;;;;;16.88;77.00;100688.94;5085269;28;20133;-74
2021/07/24 00:43:35;;;;;;;30.85;14.35;;;;;;;16.84;77.01;100686.44;5085209;28;20040;-74
2021/07/24 00:46:02;;;;;;;34.38;14.57;;;;;;;16.81;77.19;100681.28;5084936;28;20091;-74
2021/07/24 00:48:28;;;;;;;31.02;15.35;;;;;;;16.82;77.08;100685.59;5084925;28;20031;-74
2021/07/24 00:50:57;;;;;;;30.02;16.10;;;;;;;16.82;77.20;100682.16;5085150;28;20017;-74
2021/07/24 00:53:33;;;;;;;37.85;15.57;;;;;;;16.78;76.95;100685.75;5084811;28;20016;-74
2021/07/24 00:56:00;;;;;;;26.60;14.48;;;;;;;16.71;77.10;100682.44;5084879;28;20020;-74
2021/07/24 00:58:26;;;;;;;29.40;15.32;;;;;;;16.71;77.55;100685.94;5084896;28;20122;-74
2021/07/24 01:00:52;;;;;;;29.58;16.13;;;;;;;16.66;77.39;100679.97;5083462;28;20024;-74
2021/07/24 01:03:17;;;;;;;29.75;15.30;;;;;;;16.66;77.19;100687.00;5084558;28;20036;-73
2021/07/24 01:05:45;;;;;;;27.13;15.32;;;;;;;16.66;77.29;100698.31;5084636;28;20523;-74
2021/07/24 01:08:11;;;;;;;28.90;15.00;;;;;;;16.63;77.43;100697.56;5084915;28;20378;-74
2021/07/24 01:10:37;;;;;;;33.55;15.07;;;;;;;16.62;77.73;100687.97;5084925;28;20024;-73
2021/07/24 01:13:02;;;;;;;26.42;14.02;;;;;;;16.53;77.77;100681.25;5084474;28;20102;-73
2021/07/24 01:15:28;;;;;;;26.75;15.70;;;;;;;16.56;77.78;100695.13;5084445;28;20024;-73
2021/07/24 01:17:53;;;;;;;31.05;14.90;;;;;;;16.52;77.53;100697.88;5083058;28;20033;-73
2021/07/24 01:20:19;;;;;;;26.05;14.30;;;;;;;16.49;77.54;100690.94;5084530;28;20072;-73
2021/07/24 01:22:44;;;;;;;30.83;14.75;;;;;;;16.45;77.96;100700.66;5084360;28;20067;-74
2021/07/24 01:25:10;;;;;;;31.58;13.60;;;;;;;16.42;78.02;100692.03;5084148;28;20048;-73
2021/07/24 01:27:42;;;;;;;25.98;14.02;;;;;;;16.34;77.86;100687.84;5083755;28;20031;-73
2021/07/24 01:30:10;;;;;;;23.95;12.20;;;;;;;16.32;78.35;100694.06;5084414;28;20032;-73
2021/07/24 01:32:35;;;;;;;25.42;12.48;;;;;;;16.29;78.26;100692.38;5084311;28;20032;-73
2021/07/24 01:35:01;;;;;;;20.50;12.15;;;;;;;16.26;78.26;100702.94;5083971;28;20029;-73
2021/07/24 01:37:26;;;;;;;25.05;13.30;;;;;;;16.22;78.54;100691.69;5084025;28;20029;-73
2021/07/24 01:39:51;;;;;;;24.90;12.05;;;;;;;16.21;78.60;100696.97;5084051;28;20025;-73
2021/07/24 01:42:20;;;;;;;22.73;12.27;;;;;;;16.19;78.63;100689.16;5083982;28;20427;-73
2021/07/24 01:44:45;;;;;;;24.63;12.75;;;;;;;16.19;78.58;100690.91;5083843;28;20059;-73
2021/07/24 01:47:11;;;;;;;25.75;12.18;;;;;;;16.19;78.71;100690.91;5084112;28;20024;-73
2021/07/24 01:52:48;;;;;;;23.17;11.45;;;;;;;16.17;78.55;100693.56;5082924;28;20077;-74
2021/07/24 01:55:29;;;;;;;20.75;10.88;;;;;;;16.16;78.28;100688.38;5079271;28;20047;-73
2021/07/24 01:57:56;;;;;;;24.10;12.50;;;;;;;16.14;78.48;100693.66;5083648;28;20112;-74
2021/07/24 02:00:21;;;;;;;22.50;11.70;;;;;;;16.14;78.28;100687.53;5083914;28;20338;-74
2021/07/24 02:02:50;;;;;;;17.60;10.73;;;;;;;16.12;78.14;100686.75;5083551;28;20446;-74
2021/07/24 02:05:27;;;;;;;19.70;11.88;;;;;;;16.10;78.07;100682.38;5083695;28;20032;-74
2021/07/24 02:07:53;;;;;;;21.60;10.23;;;;;;;16.12;78.14;100678.88;5082199;28;20040;-74
2021/07/24 02:10:19;;;;;;;12.85;9.25;;;;;;;16.13;77.60;100681.47;5083527;28;20028;-74
2021/07/24 02:12:44;;;;;;;13.50;9.35;;;;;;;16.17;77.74;100679.59;5083569;28;20054;-74
2021/07/24 02:15:10;;;;;;;15.55;9.07;;;;;;;16.15;77.41;100669.16;5083628;28;20052;-73
2021/07/24 02:17:37;;;;;;;16.83;9.43;;;;;;;16.25;77.08;100680.25;5083832;28;20027;-74
2021/07/24 02:20:04;;;;;;;19.30;10.00;;;;;;;16.27;76.95;100682.81;5083337;28;20074;-73
2021/07/24 02:22:30;;;;;;;12.60;8.02;;;;;;;16.25;76.35;100674.16;5083563;28;20025;-73
2021/07/24 02:24:55;;;;;;;12.43;7.85;;;;;;;16.29;76.09;100681.91;5083453;28;20027;-74
2021/07/24 02:27:20;;;;;;;15.27;8.25;;;;;;;16.32;75.82;100676.56;5083573;28;20117;-73
2021/07/24 02:29:46;;;;;;;11.90;7.28;;;;;;;16.40;75.21;100675.50;5083568;28;20024;-73
2021/07/24 02:32:11;;;;;;;14.15;7.88;;;;;;;16.40;74.99;100678.97;5083561;28;20020;-73
2021/07/24 02:34:36;;;;;;;13.60;7.18;;;;;;;16.40;74.45;100672.88;5083340;28;20024;-73
2021/07/24 02:37:02;;;;;;;11.82;7.30;;;;;;;16.43;74.31;100675.41;5083346;28;20024;-73
2021/07/24 02:39:27;;;;;;;13.07;8.07;;;;;;;16.44;73.90;100679.72;5086131;28;20024;-73
2021/07/24 02:41:53;;;;;;;14.48;7.68;;;;;;;16.45;73.59;100678.84;5087419;28;20088;-73
2021/07/24 02:44:18;;;;;;;11.32;7.63;;;;;;;16.45;73.32;100673.59;5087431;28;20040;-73
2021/07/24 02:46:43;;;;;;;9.90;5.82;;;;;;;16.43;72.71;100676.25;5087244;28;20028;-73
2021/07/24 02:49:12;;;;;;;11.73;7.47;;;;;;;16.40;72.80;100671.13;5087333;28;20052;-73
2021/07/24 02:51:37;;;;;;;11.48;7.55;;;;;;;16.40;72.22;100680.72;5087167;28;20111;-73
2021/07/24 02:54:02;;;;;;;9.27;6.15;;;;;;;16.35;71.99;100681.72;5087224;28;20027;-73
2021/07/24 02:56:28;;;;;;;11.45;6.45;;;;;;;16.41;71.24;100680.69;5086976;28;20028;-73
2021/07/24 02:58:53;;;;;;;13.43;7.07;;;;;;;16.43;70.65;100683.25;5087110;28;20166;-73
2021/07/24 03:01:19;;;;;;;10.88;6.32;;;;;;;16.45;70.56;100677.06;5086978;28;20036;-73
2021/07/24 03:03:44;;;;;;;12.52;6.68;;;;;;;16.47;70.29;100682.25;5086941;28;20051;-73
2021/07/24 03:06:09;;;;;;;11.65;6.53;;;;;;;16.47;70.10;100671.78;5087109;28;20457;-73
2021/07/24 03:08:35;;;;;;;12.07;6.32;;;;;;;16.48;69.79;100678.75;5086997;28;20025;-73
2021/07/24 03:11:00;;;;;;;11.10;6.30;;;;;;;16.47;69.70;100677.00;5086668;28;20035;-73
2021/07/24 03:13:25;;;;;;;10.90;6.53;;;;;;;16.47;69.82;100677.00;5086882;28;20034;-73
2021/07/24 03:15:51;;;;;;;11.35;7.25;;;;;;;16.45;69.64;100670.97;5086816;28;20013;-73
2021/07/24 03:18:17;;;;;;;13.65;6.93;;;;;;;16.51;69.52;100673.44;5086784;28;20074;-74
2021/07/24 03:20:42;;;;;;;9.93;6.57;;;;;;;16.60;69.57;100678.38;5086899;28;20468;-74
2021/07/24 03:23:07;;;;;;;12.70;6.45;;;;;;;16.76;69.97;100675.31;5086548;28;20020;-74
2021/07/24 03:25:32;;;;;;;13.27;6.90;;;;;;;16.94;69.79;100676.53;5086495;28;20020;-73
2021/07/24 03:27:58;;;;;;;9.35;6.93;;;;;;;17.12;69.29;100682.13;5086581;28;20063;-74
2021/07/24 03:30:23;;;;;;;11.43;6.10;;;;;;;17.26;68.66;100684.31;5086483;28;20021;-75
2021/07/24 03:32:48;;;;;;;10.30;6.75;;;;;;;17.43;68.50;100683.75;5086422;28;20091;-73
2021/07/24 03:35:14;;;;;;;11.05;7.28;;;;;;;17.58;68.54;100677.16;5086332;28;20020;-73
2021/07/24 03:37:39;;;;;;;10.93;6.38;;;;;;;17.82;67.97;100682.47;5086611;28;20104;-74
2021/07/24 03:40:05;;;;;;;12.05;7.22;;;;;;;18.04;67.62;100679.09;5086244;28;20016;-74
2021/07/24 03:42:31;;;;;;;11.63;7.50;;;;;;;18.30;67.38;100687.84;5086283;28;20028;-74
2021/07/24 03:44:56;;;;;;;11.73;6.43;;;;;;;18.38;66.05;100678.81;5086236;28;20021;-73
2021/07/24 03:47:21;;;;;;;11.20;7.43;;;;;;;18.51;65.74;100687.09;5086428;28;20028;-73
2021/07/24 03:49:47;;;;;;;15.70;6.65;;;;;;;18.63;65.03;100683.13;5085887;28;20024;-74
2021/07/24 03:52:12;;;;;;;11.82;6.47;;;;;;;18.76;64.32;100678.28;5086026;28;20538;-74
2021/07/24 03:54:38;;;;;;;10.02;7.70;;;;;;;18.90;63.26;100683.84;5086215;28;20021;-73
2021/07/24 03:57:03;;;;;;;10.70;6.28;;;;;;;18.96;62.82;100674.88;5085649;28;20098;-74
2021/07/24 03:59:29;;;;;;;11.25;6.20;;;;;;;19.05;62.11;100673.66;5085719;28;20021;-74
2021/07/24 04:01:57;;;;;;;10.93;6.07;;;;;;;19.10;61.95;100681.38;5085888;28;20185;-74
2021/07/24 04:04:22;;;;;;;9.30;6.13;;;;;;;19.13;61.49;100676.00;5085979;28;20013;-74
2021/07/24 04:06:49;;;;;;;9.35;5.57;;;;;;;19.19;61.33;100670.50;5085936;28;20084;-72
2021/07/24 04:09:14;;;;;;;8.63;5.95;;;;;;;19.24;60.99;100679.06;5085740;28;20118;-73
2021/07/24 04:11:40;;;;;;;8.65;6.20;;;;;;;19.22;61.02;100659.84;5085607;28;20044;-73
2021/07/24 04:14:06;;;;;;;9.43;6.13;;;;;;;19.48;60.46;100675.47;5085692;28;20078;-72
2021/07/24 04:16:35;;;;;;;9.48;6.68;;;;;;;19.70;60.41;100662.25;5085677;28;20310;-74
2021/07/24 04:19:00;;;;;;;10.55;6.82;;;;;;;20.08;59.27;100672.06;5085574;28;20021;-74
2021/07/24 04:21:26;;;;;;;11.05;6.50;;;;;;;20.35;58.66;100677.03;5085474;28;20055;-74
2021/07/24 04:23:52;;;;;;;9.70;6.13;;;;;;;20.58;57.99;100674.25;5085414;28;20084;-74
2021/07/24 04:26:17;;;;;;;9.82;6.28;;;;;;;20.78;57.20;100676.81;5085434;28;20051;-74
2021/07/24 04:28:43;;;;;;;11.93;6.78;;;;;;;21.04;56.93;100682.66;5085591;28;20028;-74
2021/07/24 04:31:14;;;;;;;9.52;6.43;;;;;;;21.23;56.76;100680.94;5085562;28;20452;-75
2021/07/24 04:33:40;;;;;;;12.93;6.90;;;;;;;21.46;56.03;100684.19;5085544;28;20051;-75
2021/07/24 04:36:05;;;;;;;9.90;6.45;;;;;;;21.64;55.39;100685.94;5085597;28;20021;-75
2021/07/24 04:38:30;;;;;;;11.38;6.68;;;;;;;21.86;54.94;100691.91;5085589;28;20039;-75
2021/07/24 04:40:56;;;;;;;8.93;5.60;;;;;;;22.14;54.29;100690.50;5085349;28;20025;-75
2021/07/24 04:43:21;;;;;;;9.73;5.65;;;;;;;22.60;53.52;100686.31;5085303;28;20027;-75
2021/07/24 04:45:47;;;;;;;9.77;6.40;;;;;;;22.89;52.22;100686.50;5085040;28;20028;-75
2021/07/24 04:48:12;;;;;;;8.50;5.70;;;;;;;23.20;51.54;100674.16;5085087;28;20092;-75
2021/07/24 04:50:43;;;;;;;8.88;6.32;;;;;;;23.37;50.83;100681.13;5085026;28;20020;-75
2021/07/24 04:53:11;;;;;;;8.25;5.85;;;;;;;23.82;49.83;100680.31;5084911;28;20042;-71
2021/07/24 04:55:38;;;;;;;13.20;6.25;;;;;;;24.26;48.96;100686.53;5084942;28;20035;-74
2021/07/24 04:58:06;;;;;;;9.88;6.53;;;;;;;24.49;48.25;100688.66;5083456;28;20037;-75
2021/07/24 05:00:31;;;;;;;8.07;6.10;;;;;;;24.73;47.34;100688.91;5084326;28;20080;-74
2021/07/24 05:02:57;;;;;;;9.35;5.38;;;;;;;25.00;46.76;100682.78;5084429;28;20029;-73
2021/07/24 05:05:22;;;;;;;7.55;5.00;;;;;;;25.23;46.08;100698.16;5084717;28;20034;-74
2021/07/24 05:07:48;;;;;;;7.75;4.85;;;;;;;25.26;44.71;100687.34;5084657;28;20032;-74
2021/07/24 05:10:13;;;;;;;8.15;5.97;;;;;;;24.83;44.59;100675.03;5084830;28;20029;-73
2021/07/24 05:12:40;;;;;;;8.60;5.93;;;;;;;24.41;45.12;100691.81;5084678;28;20495;-74
2021/07/24 05:15:06;;;;;;;8.48;5.57;;;;;;;24.14;45.29;100695.19;5084309;28;20013;-73
2021/07/24 05:17:31;;;;;;;7.95;5.40;;;;;;;24.02;45.66;100692.38;5084146;28;20047;-74
2021/07/24 05:19:57;;;;;;;7.95;5.78;;;;;;;23.98;44.82;100690.84;5084253;28;20552;-74
2021/07/24 05:22:22;;;;;;;5.68;4.68;;;;;;;23.95;45.21;100685.72;5084454;28;20103;-74
2021/07/24 05:24:47;;;;;;;7.70;5.22;;;;;;;23.88;44.87;100684.41;5082967;28;20023;-75
2021/07/24 05:27:14;;;;;;;7.82;5.15;;;;;;;23.77;45.04;100677.94;5084212;28;20076;-74
2021/07/24 05:29:40;;;;;;;8.27;4.85;;;;;;;23.80;44.75;100681.34;5084179;28;20017;-74
2021/07/24 05:32:06;;;;;;;7.93;5.20;;;;;;;23.83;44.88;100679.38;5084150;28;20096;-74
2021/07/24 05:34:31;;;;;;;7.70;5.47;;;;;;;23.95;44.40;100684.84;5083902;28;20016;-74
2021/07/24 05:36:56;;;;;;;6.53;5.18;;;;;;;24.11;44.00;100677.69;5084286;28;20040;-74
2021/07/24 05:39:22;;;;;;;8.05;5.47;;;;;;;24.31;43.93;100677.44;5084203;28;20025;-74
2021/07/24 05:41:47;;;;;;;8.82;5.32;;;;;;;24.46;43.43;100668.50;5084025;28;20487;-74
2021/07/24 05:44:14;;;;;;;6.53;5.35;;;;;;;24.65;43.17;100671.78;5084039;28;20021;-74
2021/07/24 05:46:40;;;;;;;7.72;5.78;;;;;;;25.16;42.79;100668.50;5083782;28;20048;-74
2021/07/24 05:49:06;;;;;;;6.05;4.95;;;;;;;25.76;41.32;100672.56;5084300;28;20036;-75
2021/07/24 05:51:31;;;;;;;5.80;5.03;;;;;;;25.86;40.79;100665.66;5082778;28;20016;-73
2021/07/24 05:53:56;;;;;;;6.85;5.43;;;;;;;25.88;40.97;100671.72;5083672;28;20268;-74
2021/07/24 05:56:22;;;;;;;6.03;4.53;;;;;;;25.94;40.28;100673.13;5083606;28;20027;-73
2021/07/24 05:58:47;;;;;;;6.40;4.50;;;;;;;25.98;40.14;100670.13;5084028;28;20028;-73
2021/07/24 06:01:13;;;;;;;6.65;4.28;;;;;;;26.01;39.77;100665.56;5083945;28;20036;-74
2021/07/24 06:03:42;;;;;;;6.20;4.50;;;;;;;25.88;40.12;100666.41;5083696;28;20095;-74
2021/07/24 06:06:07;;;;;;;7.13;4.93;;;;;;;25.91;39.95;100665.34;5083984;28;20021;-75
2021/07/24 06:08:33;;;;;;;6.93;4.57;;;;;;;25.98;39.94;100661.28;5083860;28;20127;-73
2021/07/24 06:11:03;;;;;;;5.78;4.28;;;;;;;26.10;39.81;100659.59;5083732;28;20154;-73
2021/07/24 06:13:30;;;;;;;6.07;4.65;;;;;;;26.38;39.25;100657.66;5083681;28;20024;-74
2021/07/24 06:15:56;;;;;;;8.27;4.57;;;;;;;26.78;38.82;100650.38;5083537;28;20063;-74
2021/07/24 06:18:22;;;;;;;5.28;3.97;;;;;;;27.28;38.28;100650.25;5083810;28;20080;-74
2021/07/24 06:20:48;;;;;;;6.70;4.68;;;;;;;27.80;36.86;100647.22;5083555;28;20029;-74
2021/07/24 06:23:18;;;;;;;6.50;4.10;;;;;;;28.01;36.47;100648.31;5083829;28;20049;-74
2021/07/24 06:25:47;;;;;;;6.32;4.05;;;;;;;27.80;35.96;100638.38;5083420;28;20025;-75
2021/07/24 06:28:13;;;;;;;8.07;4.30;;;;;;;27.77;36.29;100639.47;5083435;28;20024;-73
2021/07/24 06:30:38;;;;;;;5.10;4.30;;;;;;;28.13;35.67;100643.84;5083503;28;20035;-75
2021/07/24 06:33:05;;;;;;;4.93;4.07;;;;;;;28.45;35.08;100640.44;5083426;28;20025;-75
2021/07/24 06:35:30;;;;;;;5.75;4.60;;;;;;;28.43;34.30;100645.91;5083291;28;20024;-75
2021/07/24 06:37:56;;;;;;;4.45;3.95;;;;;;;28.29;34.82;100633.63;5083466;28;20024;-75
2021/07/24 06:40:22;;;;;;;6.03;4.70;;;;;;;28.57;34.80;100638.56;5083380;28;20024;-72
2021/07/24 06:42:47;;;;;;;5.25;3.88;;;;;;;28.95;34.03;100637.28;5083414;28;20041;-74
2021/07/24 06:45:12;;;;;;;4.75;4.00;;;;;;;29.27;33.26;100640.88;5082936;28;20029;-75
2021/07/24 06:47:38;;;;;;;4.88;3.83;;;;;;;29.34;33.72;100641.22;5081823;28;20053;-74
2021/07/24 06:50:04;;;;;;;4.85;3.85;;;;;;;29.67;33.15;100643.81;5083130;28;20016;-73
2021/07/24 06:52:29;;;;;;;5.45;3.95;;;;;;;30.12;31.66;100644.44;5082978;28;20088;-71
2021/07/24 06:54:55;;;;;;;6.80;4.15;;;;;;;30.39;31.50;100646.50;5083070;28;20024;-69
2021/07/24 06:57:20;;;;;;;4.88;3.85;;;;;;;30.75;30.39;100637.13;5082899;28;20045;-70
2021/07/24 06:59:45;;;;;;;5.18;4.25;;;;;;;30.75;29.65;100640.63;5083060;28;20089;-63
2021/07/24 07:02:11;;;;;;;5.93;4.05;;;;;;;30.17;30.20;100640.38;5082915;28;20078;-60
2021/07/24 07:04:37;;;;;;;4.78;3.88;;;;;;;30.09;30.16;100645.56;5082851;28;20025;-63
2021/07/24 07:07:03;;;;;;;5.28;3.90;;;;;;;30.00;29.88;100649.88;5082927;28;20024;-61
2021/07/24 07:09:28;;;;;;;5.38;3.35;;;;;;;29.65;30.64;100638.59;5083193;28;20035;-72
2021/07/24 07:11:57;;;;;;;6.05;3.83;;;;;;;30.28;30.21;100638.59;5081885;28;20024;-72
2021/07/24 07:14:23;;;;;;;6.45;3.90;;;;;;;30.82;29.80;100634.75;5081527;28;20025;-70
2021/07/24 07:16:49;;;;;;;5.50;3.70;;;;;;;31.04;28.61;100633.59;5082752;28;20060;-70
2021/07/24 07:19:14;;;;;;;3.70;3.30;;;;;;;30.43;28.71;100639.88;5082844;28;20055;-68
2021/07/24 07:21:39;;;;;;;4.40;3.63;;;;;;;29.66;29.70;100634.09;5082821;28;20071;-69
2021/07/24 07:24:05;;;;;;;6.80;3.60;;;;;;;28.91;30.28;100638.47;5081911;28;20059;-69
2021/07/24 07:26:32;;;;;;;5.18;4.07;;;;;;;28.41;31.57;100638.97;5086359;28;20040;-68
2021/07/24 07:29:02;;;;;;;5.80;3.72;;;;;;;28.09;32.52;100637.91;5086397;28;20414;-69
2021/07/24 07:31:27;;;;;;;4.82;3.72;;;;;;;27.88;33.33;100638.63;5086690;28;20376;-70
2021/07/24 07:33:53;;;;;;;6.80;4.18;;;;;;;27.91;33.61;100640.22;5086227;28;20579;-70
2021/07/24 07:36:18;;;;;;;5.07;3.75;;;;;;;27.68;33.37;100635.72;5086261;28;20024;-70
2021/07/24 07:38:43;;;;;;;5.10;4.10;;;;;;;27.43;34.18;100642.06;5086287;28;20423;-69
2021/07/24 07:41:09;;;;;;;4.95;3.90;;;;;;;27.93;34.07;100649.78;5086235;28;20024;-70
2021/07/24 07:43:34;;;;;;;5.30;3.75;;;;;;;28.27;33.59;100645.41;5086281;28;20104;-69
2021/07/24 07:45:59;;;;;;;7.93;3.60;;;;;;;28.30;33.39;100653.16;5085848;28;20017;-68
2021/07/24 07:48:25;;;;;;;5.13;4.28;;;;;;;28.19;33.44;100657.56;5086123;28;20031;-68
2021/07/24 07:50:52;;;;;;;4.95;3.88;;;;;;;28.20;33.41;100651.22;5086025;28;20031;-68
2021/07/24 07:53:18;;;;;;;7.28;3.92;;;;;;;28.37;32.68;100665.06;5085913;28;20028;-66
2021/07/24 07:55:45;;;;;;;9.07;3.55;;;;;;;28.37;33.17;100650.88;5085769;28;20113;-67
2021/07/24 07:58:11;;;;;;;5.03;3.47;;;;;;;28.51;33.36;100647.94;5084337;28;20041;-68
2021/07/24 08:00:37;;;;;;;4.88;3.58;;;;;;;28.56;32.66;100651.06;5085972;28;20085;-67
2021/07/24 08:03:02;;;;;;;4.40;3.17;;;;;;;28.36;33.00;100652.69;5085856;28;20362;-67
2021/07/24 08:05:28;;;;;;;6.18;3.78;;;;;;;28.18;32.14;100655.84;5085495;28;20047;-66
2021/07/24 08:07:53;;;;;;;10.45;4.10;;;;;;;27.99;32.58;100656.44;5085796;28;20024;-67
2021/07/24 08:10:21;;;;;;;5.25;3.63;;;;;;;27.99;32.99;100651.09;5085529;28;20032;-67
2021/07/24 08:12:47;;;;;;;6.55;3.88;;;;;;;28.11;32.25;100659.13;5085540;28;20048;-67
2021/07/24 08:15:13;;;;;;;5.65;3.53;;;;;;;28.04;31.77;100645.41;5085481;28;20039;-67
2021/07/24 08:17:39;;;;;;;4.13;3.38;;;;;;;27.98;31.82;100648.56;5085662;28;20037;-66
2021/07/24 08:20:05;;;;;;;5.63;3.35;;;;;;;28.18;31.21;100645.16;5085289;28;20082;-67
2021/07/24 08:22:31;;;;;;;3.92;3.20;;;;;;;28.10;30.77;100647.59;5085508;28;20024;-66
2021/07/24 08:24:56;;;;;;;4.50;3.38;;;;;;;28.23;30.82;100650.13;5085110;28;20025;-66
2021/07/24 08:27:21;;;;;;;6.00;3.85;;;;;;;28.29;30.99;100649.63;5085648;28;20459;-69
2021/07/24 08:29:47;;;;;;;4.63;3.15;;;;;;;28.27;30.07;100638.25;5085187;28;20052;-69
2021/07/24 08:32:12;;;;;;;4.68;3.20;;;;;;;28.29;30.69;100652.31;5085180;28;20392;-70
2021/07/24 08:34:37;;;;;;;5.95;3.55;;;;;;;28.51;30.33;100650.63;5084818;28;20020;-69
2021/07/24 08:37:03;;;;;;;5.20;3.72;;;;;;;28.78;30.48;100645.81;5083698;28;20048;-69
2021/07/24 08:39:28;;;;;;;3.80;2.75;;;;;;;29.40;29.63;100654.06;5085261;28;20017;-69
2021/07/24 08:41:54;;;;;;;5.35;3.60;;;;;;;29.89;27.94;100653.50;5085333;28;20059;-68
2021/07/24 08:44:19;;;;;;;4.72;3.42;;;;;;;29.85;27.84;100654.75;5085152;28;20020;-69
2021/07/24 08:46:44;;;;;;;5.60;3.40;;;;;;;29.59;27.95;100655.19;5084823;28;20020;-69
2021/07/24 08:49:10;;;;;;;5.40;3.72;;;;;;;29.36;28.04;100649.97;5084962;28;20181;-68
2021/07/24 08:51:37;;;;;;;5.35;3.20;;;;;;;29.38;28.25;100647.16;5084911;28;20024;-69
2021/07/24 08:54:04;;;;;;;5.68;3.22;;;;;;;29.52;28.24;100648.63;5083108;28;20020;-68
2021/07/24 08:56:34;;;;;;;4.90;3.65;;;;;;;29.85;27.75;100652.09;5084439;28;20021;-68
2021/07/24 08:59:02;;;;;;;4.22;3.20;;;;;;;30.14;28.04;100655.84;5084795;28;20044;-68
2021/07/24 09:01:29;;;;;;;5.88;3.97;;;;;;;30.87;27.50;100651.25;5084794;28;20194;-68
2021/07/24 09:03:56;;;;;;;6.30;3.30;;;;;;;31.43;26.14;100646.16;5083405;28;20016;-68
2021/07/24 09:06:22;;;;;;;6.13;3.17;;;;;;;31.73;26.18;100667.53;5084648;28;20111;-68
2021/07/24 09:08:50;;;;;;;5.15;3.92;;;;;;;31.27;26.65;100658.28;5084665;28;20028;-67
2021/07/24 09:11:15;;;;;;;4.22;3.15;;;;;;;31.00;26.88;100654.50;5084541;28;20078;-68
2021/07/24 09:13:41;;;;;;;4.72;3.22;;;;;;;31.00;26.50;100656.31;5084598;28;20025;-68
2021/07/24 09:16:06;;;;;;;6.53;4.00;;;;;;;31.17;26.57;100660.97;5084335;28;20017;-68
2021/07/24 09:18:33;;;;;;;6.65;3.78;;;;;;;31.12;26.58;100663.22;5084213;28;20184;-68
2021/07/24 09:20:59;;;;;;;5.75;3.70;;;;;;;31.02;27.13;100663.22;5082959;28;20024;-68
2021/07/24 09:23:30;;;;;;;5.22;3.38;;;;;;;31.30;26.42;100657.16;5084338;28;20104;-67
2021/07/24 09:25:55;;;;;;;5.57;3.67;;;;;;;31.54;26.96;100653.19;5084184;28;20047;-70
2021/07/24 09:28:21;;;;;;;6.22;3.60;;;;;;;31.76;26.07;100649.28;5084325;28;20025;-69
2021/07/24 09:30:46;;;;;;;5.53;3.85;;;;;;;31.65;26.00;100644.09;5084177;28;20020;-68
2021/07/24 09:33:14;;;;;;;5.07;3.72;;;;;;;31.64;25.99;100651.31;5084203;28;20043;-69
2021/07/24 09:35:44;;;;;;;4.78;3.40;;;;;;;31.50;26.11;100649.94;5083796;28;20020;-71
2021/07/24 09:38:12;;;;;;;4.78;3.88;;;;;;;31.06;26.97;100647.72;5083099;28;20024;-70
2021/07/24 09:40:39;;;;;;;5.40;3.92;;;;;;;30.70;27.27;100639.38;5084157;28;20025;-70
2021/07/24 09:43:33;;;;;;;4.22;3.45;;;;;;;30.75;27.34;100653.19;5084212;28;20028;-70
2021/07/24 09:46:18;;;;;;;5.28;3.78;;;;;;;30.84;27.62;100649.69;5084150;28;20107;-70
2021/07/24 09:48:47;;;;;;;5.32;3.58;;;;;;;31.34;27.20;100647.84;5083976;28;20033;-70
2021/07/24 09:51:13;;;;;;;5.32;3.95;;;;;;;31.64;26.48;100651.31;5083970;28;20020;-70
2021/07/24 09:53:43;;;;;;;4.70;3.30;;;;;;;31.17;26.58;100649.41;5084048;28;20028;-70
2021/07/24 09:56:13;;;;;;;5.13;3.30;;;;;;;30.82;27.32;100640.94;5082531;28;20096;-70
2021/07/24 09:58:38;;;;;;;5.38;3.38;;;;;;;30.78;27.67;100639.53;5083655;28;20141;-71
2021/07/24 10:01:08;;;;;;;4.95;4.00;;;;;;;31.07;27.03;100643.22;5083899;28;20059;-70
2021/07/24 10:03:35;;;;;;;5.80;4.28;;;;;;;31.33;26.45;100630.03;5083974;28;20028;-70
2021/07/24 10:06:09;;;;;;;4.28;3.45;;;;;;;31.75;26.21;100627.97;5083857;28;20025;-70
2021/07/24 10:08:37;;;;;;;5.18;3.72;;;;;;;31.94;25.64;100623.50;5082673;28;20020;-71
2021/07/24 10:11:02;;;;;;;5.70;3.35;;;;;;;32.03;25.60;100610.06;5083929;28;20066;-71
2021/07/24 10:13:28;;;;;;;4.57;3.28;;;;;;;32.21;25.46;100611.09;5083859;28;20115;-71
2021/07/24 10:15:55;;;;;;;4.05;3.10;;;;;;;32.35;24.56;100621.31;5083558;28;20055;-71
2021/07/24 10:18:21;;;;;;;3.67;3.10;;;;;;;32.34;23.71;100616.09;5083539;28;20081;-72
2021/07/24 10:20:49;;;;;;;3.83;3.00;;;;;;;32.10;23.79;100621.06;5083466;28;20025;-72
2021/07/24 10:23:17;;;;;;;3.80;3.30;;;;;;;32.06;23.80;100619.69;5083629;28;20053;-72
2021/07/24 10:25:55;;;;;;;3.92;2.88;;;;;;;32.26;23.17;100614.19;5082031;28;20060;-72
2021/07/24 10:28:41;;;;;;;7.10;3.10;;;;;;;32.25;23.06;100612.50;5082122;28;20050;-71
2021/07/24 10:31:11;;;;;;;5.00;3.40;;;;;;;32.17;23.18;100599.84;5083784;28;20062;-71
2021/07/24 10:33:38;;;;;;;3.97;3.20;;;;;;;32.06;23.42;100597.34;5082412;28;20545;-71
2021/07/24 10:36:17;;;;;;;4.35;3.30;;;;;;;31.87;23.64;100596.44;5083482;28;20028;-70
2021/07/24 10:39:17;;;;;;;3.70;3.08;;;;;;;31.54;24.40;100600.38;5083569;28;20024;-70
2021/07/24 10:41:44;;;;;;;4.38;3.13;;;;;;;31.58;24.49;100600.09;5081000;28;20032;-70
2021/07/24 10:44:15;;;;;;;4.63;2.88;;;;;;;31.75;24.01;100593.94;5083382;28;20056;-70
2021/07/24 10:46:40;;;;;;;5.35;3.20;;;;;;;31.83;23.91;100595.88;5083542;28;20029;-71
2021/07/24 10:49:26;;;;;;;4.07;3.30;;;;;;;32.03;23.83;100595.81;5083561;28;20139;-70
2021/07/24 10:52:09;;;;;;;5.50;3.72;;;;;;;32.22;23.94;100594.84;5083238;28;20442;-72
2021/07/24 10:55:03;;;;;;;3.50;3.10;;;;;;;32.52;24.19;100586.63;5081811;28;20028;-72
2021/07/24 10:57:49;;;;;;;5.03;3.95;;;;;;;32.74;23.52;100582.59;5077580;28;20045;-72
2021/07/24 11:00:17;;;;;;;4.57;3.42;;;;;;;32.76;23.59;100585.13;5085519;28;20024;-71
2021/07/24 11:02:47;;;;;;;5.40;3.50;;;;;;;32.52;23.93;100575.88;5087374;28;20024;-72
2021/07/24 11:05:23;;;;;;;4.50;3.17;;;;;;;31.63;24.93;100587.91;5087241;28;20037;-70
2021/07/24 11:07:49;;;;;;;3.83;3.42;;;;;;;30.65;26.62;100579.03;5087071;28;20048;-71
2021/07/24 11:10:15;;;;;;;5.35;4.47;;;;;;;30.00;27.45;100579.47;5087046;28;20025;-71
2021/07/24 11:12:41;;;;;;;4.00;3.55;;;;;;;29.60;28.32;100592.69;5086847;28;20027;-71
2021/07/24 11:15:11;;;;;;;5.95;3.85;;;;;;;29.10;28.81;100586.19;5086652;28;20025;-71
2021/07/24 11:17:37;;;;;;;6.85;4.13;;;;;;;28.53;29.99;100581.91;5086447;28;20017;-71
2021/07/24 11:20:11;;;;;;;5.00;4.13;;;;;;;28.09;30.72;100579.19;5086638;28;20025;-72
2021/07/24 11:23:01;;;;;;;4.55;3.80;;;;;;;27.80;31.09;100579.69;5086638;28;20024;-72
2021/07/24 11:25:31;;;;;;;6.70;4.25;;;;;;;27.59;31.92;100580.38;5086724;28;20080;-72